createdAt,value
2023-01-29T00:00:38.370Z,30.95
2023-01-29T00:01:38.403Z,30.36
2023-01-29T00:02:38.337Z,29.95
2023-01-29T00:03:38.328Z,28.63
2023-01-29T00:04:38.313Z,28.99
2023-01-29T00:05:38.300Z,30.31
2023-01-29T00:06:38.308Z,30.41
2023-01-29T00:07:38.270Z,29.88
2023-01-29T00:08:38.254Z,27.80
2023-01-29T00:09:38.273Z,29.53
2023-01-29T00:10:38.309Z,28.35
2023-01-29T00:11:38.337Z,29.29
2023-01-29T00:12:38.381Z,31.50
2023-01-29T00:13:38.437Z,29.16
2023-01-29T00:14:38.507Z,31.89
2023-01-29T00:15:38.498Z,31.83
2023-01-29T00:16:38.560Z,29.32
2023-01-29T00:17:38.609Z,29.81
2023-01-29T00:40:39.446Z,29.93
2023-01-29T01:07:40.495Z,30.84
2023-01-29T01:21:41.067Z,30.10
2023-01-29T01:22:41.111Z,33.70
2023-01-29T01:23:41.147Z,32.54
2023-01-29T01:24:41.190Z,35.04
2023-01-29T01:25:41.215Z,32.39
2023-01-29T01:26:41.326Z,34.49
2023-01-29T01:27:41.377Z,32.64
2023-01-29T01:28:41.367Z,32.00
2023-01-29T01:36:41.728Z,28.49
2023-01-29T01:37:41.785Z,30.02
2023-01-29T01:38:41.861Z,31.74
2023-01-29T01:39:41.871Z,28.54
2023-01-29T01:40:41.895Z,31.65
2023-01-29T01:41:41.958Z,30.02
2023-01-29T01:42:42.038Z,29.98
2023-01-29T01:43:42.051Z,29.35
2023-01-29T01:44:42.125Z,27.84
2023-01-29T01:45:42.230Z,27.57
2023-01-29T01:46:42.188Z,25.00
2023-01-29T01:47:42.244Z,31.77
2023-01-29T01:48:42.306Z,31.19
2023-01-29T01:49:42.332Z,30.79
2023-01-29T01:50:42.426Z,30.55
2023-01-29T01:51:42.433Z,31.26
2023-01-29T01:52:42.535Z,31.33
2023-01-29T01:53:42.554Z,29.73
2023-01-29T01:54:42.597Z,33.00
2023-01-29T01:55:42.627Z,30.77
2023-01-29T01:56:42.713Z,29.19
2023-01-29T01:57:42.775Z,32.18
2023-01-29T01:58:42.797Z,31.93
2023-01-29T01:59:42.834Z,31.61
2023-01-29T02:00:42.954Z,26.51
2023-01-29T02:01:42.944Z,28.59
2023-01-29T02:02:42.981Z,30.86
2023-01-29T02:03:43.036Z,29.52
2023-01-29T02:04:43.076Z,29.01
2023-01-29T02:05:43.103Z,28.74
2023-01-29T02:06:43.189Z,30.95
2023-01-29T02:07:43.196Z,31.82
2023-01-29T02:08:43.258Z,32.45
2023-01-29T02:09:43.303Z,29.25
2023-01-29T02:10:43.353Z,31.58
2023-01-29T02:11:43.380Z,30.39
2023-01-29T02:12:43.448Z,32.72
2023-01-29T02:13:43.495Z,32.88
2023-01-29T02:14:43.585Z,32.34
2023-01-29T02:15:43.681Z,33.70
2023-01-29T02:16:43.644Z,35.08
2023-01-29T02:17:43.746Z,32.89
2023-01-29T02:18:43.740Z,31.28
2023-01-29T02:19:43.781Z,34.38
2023-01-29T02:20:43.826Z,36.86
2023-01-29T02:21:43.906Z,33.65
2023-01-29T02:22:43.943Z,34.51
2023-01-29T02:23:44.036Z,33.59
2023-01-29T02:24:44.131Z,36.00
2023-01-29T02:25:44.135Z,34.66
2023-01-29T02:26:44.141Z,33.16
2023-01-29T02:27:44.353Z,35.60
2023-01-29T02:28:44.264Z,36.90
2023-01-29T02:29:44.318Z,33.17
2023-01-29T02:30:44.409Z,33.40
2023-01-29T02:31:44.438Z,33.02
2023-01-29T02:32:44.413Z,34.16
2023-01-29T02:33:44.499Z,33.43
2023-01-29T05:06:51.759Z,38.66
2023-01-29T05:07:51.822Z,38.23
2023-01-29T05:08:51.811Z,36.58
2023-01-29T05:09:51.931Z,36.36
2023-01-29T05:10:51.937Z,34.39
2023-01-29T05:11:51.976Z,35.79
2023-01-29T05:12:52.007Z,36.09
2023-01-29T05:13:52.029Z,36.76
2023-01-29T05:14:52.078Z,38.10
2023-01-29T05:15:52.167Z,34.90
2023-01-29T05:16:52.172Z,35.49
2023-01-29T05:17:52.197Z,35.73
2023-01-29T05:18:52.240Z,37.00
2023-01-29T05:19:52.276Z,37.47
2023-01-29T05:20:52.341Z,40.67
2023-01-29T05:21:52.428Z,37.72
2023-01-29T05:22:52.435Z,35.05
2023-01-29T05:23:52.457Z,38.09
2023-01-29T05:24:52.525Z,38.39
2023-01-29T05:25:52.572Z,37.36
2023-01-29T05:26:52.616Z,40.19
2023-01-29T05:27:52.694Z,39.20
2023-01-29T05:28:54.097Z,39.04
2023-01-29T05:29:52.679Z,39.07
2023-01-29T05:30:52.738Z,36.30
2023-01-29T05:31:52.723Z,37.97
2023-01-29T05:32:52.671Z,38.62
2023-01-29T05:33:52.714Z,36.75
2023-01-29T05:34:52.699Z,37.10
2023-01-29T05:35:52.659Z,41.55
2023-01-29T05:36:52.646Z,40.81
2023-01-29T05:37:52.651Z,36.70
2023-01-29T05:38:52.655Z,37.27
2023-01-29T05:39:52.592Z,41.29
2023-01-29T05:40:52.642Z,39.36
2023-01-29T05:41:52.601Z,38.20
2023-01-29T05:42:52.587Z,38.43
2023-01-29T05:43:52.593Z,39.83
2023-01-29T05:44:52.632Z,39.16
2023-01-29T05:45:52.571Z,39.87
2023-01-29T05:46:52.636Z,38.98
2023-01-29T05:47:52.581Z,41.54
2023-01-29T05:48:52.591Z,40.07
2023-01-29T05:49:52.540Z,37.92
2023-01-29T05:50:52.519Z,38.41
2023-01-29T05:51:52.513Z,41.54
2023-01-29T05:52:52.565Z,38.06
2023-01-29T05:53:52.517Z,40.81
2023-01-29T05:54:52.504Z,40.68
2023-01-29T05:55:52.499Z,40.97
2023-01-29T05:56:52.470Z,41.16
2023-01-29T05:57:52.488Z,43.69
2023-01-29T05:58:52.502Z,37.65
2023-01-29T05:59:52.491Z,38.54
2023-01-29T06:00:52.487Z,41.23
2023-01-29T06:01:52.454Z,39.67
2023-01-29T06:02:52.464Z,42.31
2023-01-29T06:03:52.419Z,41.47
2023-01-29T06:04:52.417Z,41.33
2023-01-29T06:05:52.429Z,40.09
2023-01-29T06:06:52.395Z,37.67
2023-01-29T06:07:52.404Z,40.23
2023-01-29T06:08:52.430Z,42.88
2023-01-29T06:09:52.364Z,41.04
2023-01-29T06:10:52.404Z,41.66
2023-01-29T06:11:52.402Z,38.90
2023-01-29T06:12:52.418Z,41.93
2023-01-29T06:13:52.448Z,43.37
2023-01-29T06:14:52.488Z,44.09
2023-01-29T06:15:52.618Z,39.99
2023-01-29T06:16:52.567Z,41.25
2023-01-29T06:17:52.629Z,39.08
2023-01-29T06:18:52.684Z,42.63
2023-01-29T06:19:52.749Z,42.20
2023-01-29T06:20:52.813Z,40.51
2023-01-29T06:21:52.846Z,43.72
2023-01-29T06:22:52.932Z,41.66
2023-01-29T06:23:52.925Z,43.40
2023-01-29T06:24:52.965Z,41.00
2023-01-29T06:25:53.024Z,40.84
2023-01-29T06:26:53.078Z,38.04
2023-01-29T06:27:53.162Z,42.61
2023-01-29T06:28:53.191Z,44.44
2023-01-29T06:29:53.242Z,40.35
2023-01-29T06:30:53.308Z,40.27
2023-01-29T06:31:53.472Z,42.28
2023-01-29T06:32:53.408Z,41.29
2023-01-29T06:33:53.478Z,46.38
2023-01-29T06:34:53.488Z,42.08
2023-01-29T06:35:53.531Z,40.94
2023-01-29T06:36:53.582Z,45.15
2023-01-29T06:37:53.638Z,40.04
2023-01-29T06:38:53.694Z,41.18
2023-01-29T06:39:53.730Z,38.09
2023-01-29T06:40:53.761Z,42.62
2023-01-29T06:41:53.826Z,42.99
2023-01-29T06:42:53.939Z,41.89
2023-01-29T06:43:53.899Z,41.16
2023-01-29T06:44:53.923Z,42.18
2023-01-29T06:45:54.027Z,41.52
2023-01-29T06:46:54.013Z,42.73
2023-01-29T06:47:54.031Z,44.98
2023-01-29T06:48:54.127Z,40.37
2023-01-29T06:49:54.165Z,41.92
2023-01-29T06:50:54.191Z,43.83
2023-01-29T06:51:54.262Z,42.96
2023-01-29T06:52:54.296Z,40.51
2023-01-29T06:53:54.303Z,42.00
2023-01-29T06:54:54.362Z,41.29
2023-01-29T06:55:54.444Z,44.13
2023-01-29T06:56:54.487Z,42.04
2023-01-29T06:57:54.536Z,42.77
2023-01-29T06:58:54.546Z,42.92
2023-01-29T06:59:54.599Z,42.42
2023-01-29T07:00:54.693Z,44.33
2023-01-29T07:01:54.772Z,42.92
2023-01-29T07:02:54.777Z,44.15
2023-01-29T07:03:54.801Z,39.21
2023-01-29T07:04:54.866Z,42.70
2023-01-29T07:05:54.893Z,44.76
2023-01-29T07:06:54.947Z,44.11
2023-01-29T07:07:54.969Z,42.52
2023-01-29T07:08:55.038Z,44.93
2023-01-29T07:09:55.062Z,42.11
2023-01-29T07:10:55.089Z,39.95
2023-01-29T07:11:55.136Z,39.61
2023-01-29T07:12:55.151Z,45.44
2023-01-29T07:13:55.237Z,42.76
2023-01-29T07:14:55.270Z,42.90
2023-01-29T07:15:55.314Z,42.14
2023-01-29T07:16:55.360Z,40.81
2023-01-29T07:17:55.371Z,43.94
2023-01-29T07:18:55.443Z,42.94
2023-01-29T07:19:55.473Z,42.70
2023-01-29T07:20:55.535Z,40.75
2023-01-29T07:21:55.542Z,43.56
2023-01-29T07:22:55.632Z,41.25
2023-01-29T07:23:55.741Z,40.12
2023-01-29T07:24:55.669Z,40.91
2023-01-29T07:25:55.751Z,40.86
2023-01-29T07:26:55.800Z,40.88
2023-01-29T07:27:55.802Z,39.66
2023-01-29T07:28:55.824Z,45.05
2023-01-29T07:29:55.901Z,44.58
2023-01-29T07:30:55.937Z,41.40
2023-01-29T07:31:56.036Z,39.62
2023-01-29T07:32:55.995Z,40.66
2023-01-29T07:33:56.060Z,43.09
2023-01-29T07:34:56.073Z,43.51
2023-01-29T07:35:56.101Z,45.40
2023-01-29T07:36:56.146Z,41.58
2023-01-29T07:37:56.219Z,43.84
2023-01-29T07:38:56.195Z,40.65
2023-01-29T07:39:56.293Z,42.28
2023-01-29T07:40:56.342Z,41.86
2023-01-29T07:41:56.382Z,44.08
2023-01-29T07:42:56.440Z,42.83
2023-01-29T07:43:56.471Z,43.30
2023-01-29T07:44:56.495Z,42.54
2023-01-29T07:45:56.628Z,41.89
2023-01-29T07:46:56.594Z,45.40
2023-01-29T07:47:56.676Z,42.24
2023-01-29T07:48:56.670Z,42.31
2023-01-29T07:49:56.721Z,40.65
2023-01-29T07:50:56.791Z,43.57
2023-01-29T07:51:56.829Z,39.90
2023-01-29T07:52:56.890Z,41.97
2023-01-29T07:53:56.913Z,42.45
2023-01-29T07:54:56.992Z,45.09
2023-01-29T07:55:57.052Z,41.80
2023-01-29T07:56:57.099Z,46.16
2023-01-29T07:57:57.173Z,43.24
2023-01-29T07:58:57.171Z,41.88
2023-01-29T07:59:57.241Z,46.38
2023-01-29T08:00:57.308Z,49.76
2023-01-29T08:01:57.337Z,44.35
2023-01-29T08:02:57.322Z,44.96
2023-01-29T08:03:57.429Z,43.12
2023-01-29T08:04:57.462Z,46.96
2023-01-29T08:05:57.473Z,44.72
2023-01-29T08:06:57.527Z,42.98
2023-01-29T08:08:06.411Z,43.31
2023-01-29T08:09:57.575Z,42.71
2023-01-29T08:10:57.530Z,43.52
2023-01-29T08:11:57.578Z,44.22
2023-01-29T08:12:57.521Z,48.05
2023-01-29T08:13:57.518Z,47.90
2023-01-29T08:14:57.514Z,44.83
2023-01-29T08:15:57.493Z,43.36
2023-01-29T08:16:57.500Z,45.57
2023-01-29T08:17:58.490Z,47.98
2023-01-29T08:18:57.550Z,43.26
2023-01-29T08:19:57.576Z,47.23
2023-01-29T08:20:57.655Z,44.44
2023-01-29T08:21:57.711Z,46.23
2023-01-29T08:22:57.768Z,45.34
2023-01-29T08:23:57.858Z,44.24
2023-01-29T08:25:06.455Z,45.63
2023-01-29T08:26:57.812Z,45.80
2023-01-29T08:27:57.841Z,45.48
2023-01-29T08:28:57.807Z,44.89
2023-01-29T08:29:57.795Z,47.74
2023-01-29T08:30:57.792Z,46.13
2023-01-29T08:31:57.866Z,47.25
2023-01-29T08:32:57.771Z,48.56
2023-01-29T08:33:57.741Z,47.04
2023-01-29T08:34:57.763Z,50.94
2023-01-29T08:35:57.744Z,49.32
2023-01-29T08:36:57.783Z,48.41
2023-01-29T08:37:57.897Z,50.16
2023-01-29T08:38:57.918Z,51.57
2023-01-29T08:39:57.988Z,48.40
2023-01-29T08:40:58.022Z,48.71
2023-01-29T08:41:58.031Z,49.72
2023-01-29T08:45:58.254Z,50.80
2023-01-29T08:46:58.258Z,48.31
2023-01-29T08:47:58.326Z,52.57
2023-01-29T08:48:58.367Z,51.24
2023-01-29T08:49:58.408Z,51.76
2023-01-29T08:50:58.444Z,53.63
2023-01-29T08:51:58.481Z,53.44
2023-01-29T08:52:58.551Z,50.02
2023-01-29T08:53:58.627Z,53.76
2023-01-29T08:54:58.667Z,53.10
2023-01-29T08:55:58.680Z,51.37
2023-01-29T08:56:58.733Z,52.30
2023-01-29T08:57:58.805Z,53.26
2023-01-29T08:58:59.266Z,52.86
2023-01-29T08:59:58.911Z,52.24
2023-01-29T09:00:58.999Z,50.60
2023-01-29T09:01:58.956Z,51.07
2023-01-29T09:02:59.025Z,53.91
2023-01-29T09:03:59.053Z,51.95
2023-01-29T09:04:59.105Z,53.20
2023-01-29T09:05:59.148Z,53.59
2023-01-29T09:06:59.222Z,52.21
2023-01-29T09:07:59.257Z,54.42
2023-01-29T09:08:59.287Z,53.62
2023-01-29T09:09:59.338Z,52.58
2023-01-29T09:10:59.363Z,54.63
2023-01-29T09:11:59.402Z,54.76
2023-01-29T09:12:59.467Z,54.01
2023-01-29T09:13:59.491Z,55.10
2023-01-29T09:14:59.541Z,55.78
2023-01-29T09:15:59.591Z,52.97
2023-01-29T09:16:59.726Z,53.36
2023-01-29T09:17:59.676Z,55.57
2023-01-29T09:18:59.776Z,52.02
2023-01-29T09:19:59.756Z,52.91
2023-01-29T09:22:59.888Z,52.37
2023-01-29T09:23:59.939Z,51.47
2023-01-29T09:25:00.010Z,50.64
2023-01-29T09:26:00.029Z,51.61
2023-01-29T09:27:00.081Z,51.46
2023-01-29T09:32:00.357Z,53.60
2023-01-29T09:33:00.338Z,54.95
2023-01-29T09:34:00.426Z,51.84
2023-01-29T09:35:00.441Z,52.61
2023-01-29T09:36:00.474Z,52.54
2023-01-29T09:37:00.544Z,50.18
2023-01-29T09:38:00.560Z,53.70
2023-01-29T09:39:00.582Z,53.28
2023-01-29T09:40:00.669Z,52.07
2023-01-29T09:41:00.705Z,51.39
2023-01-29T09:42:00.725Z,54.04
2023-01-29T09:43:00.780Z,51.58
2023-01-29T09:44:00.874Z,52.15
2023-01-29T09:45:00.910Z,54.79
2023-01-29T09:46:00.990Z,52.61
2023-01-29T09:47:00.974Z,53.51
2023-01-29T09:48:01.039Z,53.09
2023-01-29T09:49:01.061Z,54.58
2023-01-29T09:50:01.147Z,55.52
2023-01-29T09:51:01.216Z,50.99
2023-01-29T09:52:01.238Z,50.90
2023-01-29T09:53:01.246Z,54.21
2023-01-29T09:54:01.307Z,52.36
2023-01-29T09:55:01.335Z,50.81
2023-01-29T09:56:01.411Z,53.87
2023-01-29T09:57:01.426Z,52.33
2023-01-29T09:58:01.454Z,51.23
2023-01-29T09:59:02.055Z,52.80
2023-01-29T10:00:01.575Z,55.64
2023-01-29T10:01:01.618Z,55.19
2023-01-29T10:02:01.725Z,54.49
2023-01-29T10:03:01.695Z,56.74
2023-01-29T10:04:01.718Z,56.77
2023-01-29T10:05:01.752Z,52.88
2023-01-29T10:06:01.775Z,56.51
2023-01-29T10:07:01.836Z,56.05
2023-01-29T10:08:01.868Z,51.87
2023-01-29T10:09:01.938Z,57.01
2023-01-29T10:10:01.988Z,54.99
2023-01-29T10:11:02.024Z,50.49
2023-01-29T10:12:02.028Z,54.64
2023-01-29T10:13:02.112Z,59.30
2023-01-29T10:14:02.186Z,54.17
2023-01-29T10:15:02.190Z,54.37
2023-01-29T10:16:02.254Z,57.09
2023-01-29T10:17:02.309Z,53.29
2023-01-29T10:18:02.359Z,50.30
2023-01-29T10:19:02.428Z,56.05
2023-01-29T10:20:02.430Z,53.73
2023-01-29T10:21:02.467Z,56.26
2023-01-29T10:22:02.553Z,55.15
2023-01-29T10:23:02.547Z,56.17
2023-01-29T10:24:02.605Z,53.12
2023-01-29T10:25:02.616Z,56.00
2023-01-29T10:26:02.691Z,55.84
2023-01-29T10:27:02.713Z,54.58
2023-01-29T10:28:02.815Z,53.96
2023-01-29T10:29:02.810Z,54.57
2023-01-29T10:30:02.848Z,52.02
2023-01-29T10:31:03.012Z,53.90
2023-01-29T10:32:03.074Z,55.82
2023-01-29T10:33:02.977Z,52.69
2023-01-29T10:34:03.273Z,54.05
2023-01-29T10:35:03.068Z,53.45
2023-01-29T10:36:03.162Z,58.27
2023-01-29T10:37:03.195Z,53.15
2023-01-29T10:38:03.198Z,54.69
2023-01-29T10:39:03.238Z,53.71
2023-01-29T10:40:03.279Z,53.95
2023-01-29T10:41:03.330Z,56.68
2023-01-29T10:42:03.452Z,52.63
2023-01-29T10:43:03.404Z,55.77
2023-01-29T10:44:03.468Z,52.65
2023-01-29T10:45:03.524Z,54.29
2023-01-29T10:46:03.573Z,54.14
2023-01-29T10:47:03.651Z,56.08
2023-01-29T10:48:03.642Z,55.33
2023-01-29T10:49:03.715Z,54.65
2023-01-29T10:50:03.708Z,54.49
2023-01-29T10:51:03.732Z,51.87
2023-01-29T10:52:03.787Z,54.92
2023-01-29T10:53:03.854Z,54.32
2023-01-29T10:54:03.940Z,53.14
2023-01-29T10:55:03.926Z,54.29
2023-01-29T10:56:14.115Z,56.41
2023-01-29T10:57:04.946Z,56.52
2023-01-29T10:58:03.958Z,56.47
2023-01-29T10:59:03.906Z,55.69
2023-01-29T11:00:03.949Z,54.52
2023-01-29T11:01:03.880Z,54.84
2023-01-29T11:02:03.858Z,54.84
2023-01-29T11:03:05.278Z,54.00
2023-01-29T11:04:04.020Z,55.90
2023-01-29T11:05:04.067Z,57.19
2023-01-29T11:06:04.119Z,55.51
2023-01-29T11:07:04.144Z,51.29
2023-01-29T11:08:04.220Z,54.79
2023-01-29T11:09:04.272Z,56.82
2023-01-29T11:10:04.293Z,53.82
2023-01-29T11:11:04.313Z,58.55
2023-01-29T11:12:04.373Z,54.83
2023-01-29T11:13:04.407Z,55.61
2023-01-29T11:14:04.426Z,53.04
2023-01-29T11:15:04.506Z,57.35
2023-01-29T11:16:04.563Z,54.44
2023-01-29T11:17:04.658Z,52.97
2023-01-29T11:18:04.623Z,54.01
2023-01-29T11:19:04.664Z,53.63
2023-01-29T11:20:04.688Z,59.74
2023-01-29T11:21:04.756Z,58.33
2023-01-29T11:22:04.797Z,52.85
2023-01-29T11:23:06.715Z,55.28
2023-01-29T11:24:05.056Z,52.50
2023-01-29T11:25:05.131Z,53.51
2023-01-29T11:26:05.167Z,58.12
2023-01-29T11:27:05.228Z,53.62
2023-01-29T11:28:05.307Z,53.03
2023-01-29T11:29:05.311Z,50.97
2023-01-29T11:30:05.305Z,52.29
2023-01-29T11:31:05.417Z,57.29
2023-01-29T11:32:05.374Z,52.48
2023-01-29T11:33:05.426Z,52.94
2023-01-29T11:34:05.446Z,54.15
2023-01-29T11:35:05.466Z,52.08
2023-01-29T11:36:05.500Z,55.19
2023-01-29T11:37:05.485Z,52.97
2023-01-29T11:38:05.533Z,53.25
2023-01-29T11:39:05.589Z,52.03
2023-01-29T11:40:05.648Z,51.51
2023-01-29T11:41:05.685Z,55.64
2023-01-29T11:42:05.701Z,53.35
2023-01-29T11:43:05.764Z,55.44
2023-01-29T11:44:05.788Z,56.34
2023-01-29T11:45:05.865Z,53.13
2023-01-29T11:46:05.963Z,55.14
2023-01-29T11:47:05.926Z,53.39
2023-01-29T11:48:05.962Z,53.73
2023-01-29T11:49:20.196Z,54.33
2023-01-29T11:50:06.968Z,54.58
2023-01-29T11:51:06.608Z,54.48
2023-01-29T11:52:05.955Z,52.70
2023-01-29T11:53:05.905Z,52.74
2023-01-29T11:54:05.899Z,51.75
2023-01-29T11:55:05.864Z,52.47
2023-01-29T11:56:05.848Z,56.64
2023-01-29T11:57:05.834Z,55.46
2023-01-29T11:58:05.808Z,52.59
2023-01-29T11:59:05.797Z,52.15
2023-01-29T12:00:05.828Z,53.27
2023-01-29T12:01:05.829Z,51.18
2023-01-29T12:02:05.902Z,53.28
2023-01-29T12:03:05.890Z,50.07
2023-01-29T12:04:06.002Z,52.27
2023-01-29T12:05:06.015Z,52.45
2023-01-29T12:06:06.107Z,52.87
2023-01-29T12:07:06.103Z,52.23
2023-01-29T12:08:06.147Z,52.91
2023-01-29T12:09:06.172Z,53.88
2023-01-29T12:10:06.219Z,53.89
2023-01-29T12:11:06.265Z,47.59
2023-01-29T12:12:06.317Z,54.44
2023-01-29T12:13:06.393Z,53.59
2023-01-29T12:14:06.433Z,53.21
2023-01-29T12:15:06.433Z,51.86
2023-01-29T12:16:06.528Z,52.44
2023-01-29T12:17:06.507Z,54.36
2023-01-29T12:18:06.578Z,51.31
2023-01-29T12:19:06.619Z,53.37
2023-01-29T12:20:06.667Z,53.27
2023-01-29T12:21:06.751Z,51.33
2023-01-29T12:22:06.749Z,51.34
2023-01-29T12:23:06.795Z,54.00
2023-01-29T12:24:06.860Z,51.08
2023-01-29T12:25:06.837Z,51.87
2023-01-29T12:26:06.915Z,53.68
2023-01-29T12:27:06.942Z,49.66
2023-01-29T12:28:09.380Z,51.28
2023-01-29T12:29:07.139Z,53.70
2023-01-29T12:30:07.188Z,50.71
2023-01-29T12:31:07.250Z,52.19
2023-01-29T12:32:07.269Z,46.78
2023-01-29T12:33:07.270Z,50.59
2023-01-29T12:34:07.333Z,52.76
2023-01-29T12:35:07.419Z,52.32
2023-01-29T12:36:09.840Z,51.35
2023-01-29T12:37:07.399Z,53.46
2023-01-29T12:38:07.361Z,56.05
2023-01-29T12:39:07.340Z,53.83
2023-01-29T12:40:07.375Z,50.91
2023-01-29T12:41:07.496Z,49.75
2023-01-29T12:42:07.331Z,52.72
2023-01-29T12:43:07.353Z,52.10
2023-01-29T12:44:07.318Z,51.39
2023-01-29T12:45:07.303Z,52.31
2023-01-29T12:46:07.260Z,49.48
2023-01-29T12:47:07.364Z,50.92
2023-01-29T12:48:07.280Z,49.18
2023-01-29T12:49:07.310Z,53.93
2023-01-29T12:50:07.237Z,49.21
2023-01-29T12:51:07.248Z,51.49
2023-01-29T12:52:07.218Z,51.45
2023-01-29T12:53:07.201Z,51.19
2023-01-29T12:54:07.185Z,52.39
2023-01-29T12:55:07.171Z,52.93
2023-01-29T12:56:07.158Z,51.25
2023-01-29T12:57:07.171Z,53.07
2023-01-29T12:58:07.146Z,47.69
2023-01-29T12:59:07.143Z,48.91
2023-01-29T13:00:07.113Z,50.28
2023-01-29T13:01:07.220Z,51.38
2023-01-29T13:02:07.087Z,49.92
2023-01-29T13:03:07.067Z,49.82
2023-01-29T13:04:07.027Z,50.18
2023-01-29T13:05:07.043Z,49.61
2023-01-29T13:06:07.019Z,47.47
2023-01-29T13:07:06.975Z,49.40
2023-01-29T13:08:06.951Z,49.02
2023-01-29T13:09:06.979Z,48.96
2023-01-29T13:10:06.930Z,51.40
2023-01-29T13:11:06.955Z,48.94
2023-01-29T13:12:06.921Z,48.60
2023-01-29T13:13:06.879Z,49.38
2023-01-29T13:14:06.864Z,50.75
2023-01-29T13:15:06.905Z,47.62
2023-01-29T13:16:06.883Z,49.00
2023-01-29T13:17:06.853Z,49.89
2023-01-29T13:18:06.885Z,53.42
2023-01-29T13:19:06.918Z,47.91
2023-01-29T13:20:06.967Z,53.69
2023-01-29T13:21:07.045Z,49.55
2023-01-29T13:22:07.058Z,49.49
2023-01-29T13:23:07.111Z,50.84
2023-01-29T13:24:07.142Z,52.20
2023-01-29T13:25:07.181Z,51.42
2023-01-29T13:26:07.222Z,52.62
2023-01-29T13:27:07.315Z,52.63
2023-01-29T13:28:07.325Z,48.41
2023-01-29T13:29:07.343Z,47.98
2023-01-29T13:30:07.423Z,48.25
2023-01-29T13:31:07.483Z,51.14
2023-01-29T13:32:07.524Z,48.87
2023-01-29T13:33:07.535Z,50.01
2023-01-29T13:34:07.580Z,47.21
2023-01-29T13:35:07.621Z,50.80
2023-01-29T13:36:07.653Z,50.56
2023-01-29T13:37:07.693Z,48.09
2023-01-29T13:38:07.740Z,50.68
2023-01-29T13:39:07.761Z,50.82
2023-01-29T13:40:07.884Z,49.37
2023-01-29T13:41:07.860Z,51.40
2023-01-29T13:42:07.955Z,51.23
2023-01-29T13:43:07.971Z,51.14
2023-01-29T13:44:08.000Z,52.39
2023-01-29T13:45:08.077Z,49.25
2023-01-29T13:46:08.101Z,52.48
2023-01-29T13:47:08.106Z,51.52
2023-01-29T13:48:08.203Z,51.43
2023-01-29T13:49:08.208Z,48.33
2023-01-29T13:50:08.276Z,48.64
2023-01-29T13:51:08.296Z,50.68
2023-01-29T13:52:08.354Z,50.03
2023-01-29T13:53:08.430Z,47.02
2023-01-29T13:54:08.430Z,47.78
2023-01-29T13:55:08.616Z,49.37
2023-01-29T13:56:08.529Z,49.34
2023-01-29T13:57:08.564Z,49.98
2023-01-29T13:58:08.654Z,48.50
2023-01-29T13:59:08.687Z,49.84
2023-01-29T14:00:08.752Z,48.56
2023-01-29T14:01:08.803Z,48.31
2023-01-29T14:02:08.800Z,47.76
2023-01-29T14:03:09.620Z,48.53
2023-01-29T14:04:08.922Z,47.43
2023-01-29T14:05:09.123Z,49.14
2023-01-29T14:06:09.031Z,48.93
2023-01-29T14:07:09.023Z,49.74
2023-01-29T14:08:09.043Z,51.65
2023-01-29T14:09:09.072Z,45.16
2023-01-29T14:10:09.092Z,44.32
2023-01-29T14:11:09.090Z,47.21
2023-01-29T14:12:09.161Z,46.92
2023-01-29T14:13:09.156Z,42.63
2023-01-29T14:14:09.180Z,45.67
2023-01-29T14:15:09.232Z,44.06
2023-01-29T14:16:09.239Z,43.87
2023-01-29T14:17:09.277Z,43.77
2023-01-29T14:18:09.304Z,47.78
2023-01-29T14:19:09.359Z,49.03
2023-01-29T14:20:09.418Z,43.95
2023-01-29T14:21:09.455Z,48.20
2023-01-29T14:22:09.483Z,43.81
2023-01-29T14:23:09.519Z,44.77
2023-01-29T14:24:09.571Z,44.71
2023-01-29T14:25:09.650Z,45.45
2023-01-29T14:26:09.699Z,47.48
2023-01-29T14:27:09.748Z,48.01
2023-01-29T14:28:11.017Z,46.55
2023-01-29T14:29:09.826Z,44.31
2023-01-29T14:31:10.032Z,40.92
2023-01-29T14:32:09.991Z,43.35
2023-01-29T14:33:10.037Z,43.47
2023-01-29T14:34:10.092Z,41.93
2023-01-29T14:35:10.149Z,41.99
2023-01-29T14:37:10.261Z,45.99
2023-01-29T14:38:10.271Z,42.00
2023-01-29T14:39:10.315Z,43.32
2023-01-29T14:40:10.387Z,41.94
2023-01-29T14:41:10.449Z,42.05
2023-01-29T14:42:10.461Z,41.43
2023-01-29T14:43:10.500Z,44.79
2023-01-29T14:44:10.553Z,40.71
2023-01-29T14:45:10.636Z,40.01
2023-01-29T14:46:10.701Z,40.31
2023-01-29T14:48:10.807Z,40.11
2023-01-29T14:49:10.796Z,40.05
2023-01-29T14:50:10.857Z,39.19
2023-01-29T14:51:11.145Z,37.17
2023-01-29T14:52:10.956Z,40.19
2023-01-29T14:53:10.999Z,39.91
2023-01-29T14:54:11.055Z,39.64
2023-01-29T14:57:11.178Z,40.87
2023-01-29T14:58:11.255Z,39.01
2023-01-29T14:59:11.340Z,39.46
2023-01-29T15:00:11.417Z,34.44
2023-01-29T15:01:11.448Z,38.63
2023-01-29T15:02:11.527Z,37.95
2023-01-29T15:03:11.530Z,38.64
2023-01-29T15:04:12.987Z,38.55
2023-01-29T15:05:11.642Z,40.37
2023-01-29T15:06:11.668Z,39.76
2023-01-29T15:07:11.736Z,39.38
2023-01-29T15:08:11.765Z,39.13
2023-01-29T15:09:11.807Z,39.37
2023-01-29T15:10:22.466Z,38.36
2023-01-29T15:11:12.851Z,38.57
2023-01-29T15:12:11.827Z,38.58
2023-01-29T15:13:11.841Z,38.09
2023-01-29T15:14:11.807Z,37.32
2023-01-29T15:15:11.821Z,38.42
2023-01-29T15:16:11.822Z,38.49
2023-01-29T15:17:11.785Z,36.25
2023-01-29T15:18:11.771Z,37.08
2023-01-29T15:19:11.762Z,37.81
2023-01-29T15:20:11.739Z,34.91
2023-01-29T15:21:11.818Z,37.49
2023-01-29T15:22:11.884Z,36.93
2023-01-29T15:23:11.940Z,37.92
2023-01-29T15:24:11.940Z,35.54
2023-01-29T15:25:12.017Z,34.09
2023-01-29T15:26:12.077Z,36.42
2023-01-29T15:27:12.082Z,35.67
2023-01-29T15:28:12.151Z,35.94
2023-01-29T15:29:12.162Z,35.18
2023-01-29T15:30:12.230Z,34.52
2023-01-29T15:31:12.325Z,30.86
2023-01-29T15:32:12.307Z,34.73
2023-01-29T15:33:12.432Z,28.91
2023-01-29T15:34:12.427Z,31.56
2023-01-29T15:35:12.516Z,33.50
2023-01-29T15:36:12.530Z,31.12
2023-01-29T15:37:12.581Z,31.58
2023-01-29T15:38:12.614Z,32.23
2023-01-29T15:39:12.669Z,29.23
2023-01-29T15:40:12.752Z,28.59
2023-01-29T15:41:12.765Z,29.85
2023-01-29T15:42:12.826Z,31.76
2023-01-29T15:43:12.877Z,30.74
2023-01-29T15:44:12.896Z,30.79
2023-01-29T15:45:12.935Z,30.83
2023-01-29T15:46:12.992Z,29.42
2023-01-29T15:47:13.114Z,33.45
2023-01-29T15:48:13.186Z,29.64
2023-01-29T15:49:13.124Z,28.72
2023-01-29T15:50:13.205Z,25.00
2023-01-29T15:51:13.244Z,30.05
2023-01-29T15:52:13.299Z,30.71
2023-01-29T15:53:13.350Z,29.13
2023-01-29T15:54:15.504Z,30.31
2023-01-29T15:55:13.426Z,27.27
2023-01-29T15:56:13.472Z,29.30
2023-01-29T15:57:13.531Z,28.06
2023-01-29T15:58:13.572Z,27.64
2023-01-29T15:59:13.657Z,28.84
2023-01-29T16:00:13.732Z,27.46
2023-01-29T16:01:13.737Z,32.64
2023-01-29T16:02:13.794Z,30.09
2023-01-29T16:03:13.826Z,30.08
2023-01-29T16:04:13.865Z,32.52
2023-01-29T16:05:13.907Z,31.06
2023-01-29T16:06:13.963Z,28.77
2023-01-29T16:07:14.002Z,32.52
2023-01-29T16:08:14.084Z,31.42
2023-01-29T16:09:14.101Z,27.89
2023-01-29T16:10:14.183Z,34.07
2023-01-29T16:11:14.219Z,32.16
2023-01-29T16:12:14.272Z,30.21
2023-01-29T16:13:14.317Z,31.18
2023-01-29T16:14:14.335Z,26.99
2023-01-29T16:15:14.677Z,29.44
2023-01-29T16:16:14.554Z,33.35
2023-01-29T16:17:14.517Z,31.17
2023-01-29T16:18:14.569Z,33.43
2023-01-29T16:19:14.582Z,28.16
2023-01-29T16:20:14.685Z,32.09
2023-01-29T16:21:14.721Z,32.68
2023-01-29T16:22:14.754Z,32.26
2023-01-29T16:23:14.784Z,28.58
2023-01-29T16:24:14.849Z,29.76
2023-01-29T16:25:15.051Z,31.28
2023-01-29T16:26:15.035Z,31.86
2023-01-29T16:27:15.025Z,29.71
2023-01-29T16:28:15.056Z,31.58
2023-01-29T16:29:15.093Z,31.83
2023-01-29T16:30:15.138Z,30.65
2023-01-29T16:31:15.356Z,28.02
2023-01-29T16:32:15.348Z,30.47
2023-01-29T16:33:15.291Z,30.31
2023-01-29T16:34:15.356Z,26.49
2023-01-29T16:35:15.585Z,31.69
2023-01-29T16:36:15.499Z,30.03
2023-01-29T16:37:15.547Z,32.98
2023-01-29T16:38:15.562Z,32.22
2023-01-29T16:39:15.615Z,30.62
2023-01-29T16:40:15.700Z,29.72
2023-01-29T16:41:15.734Z,30.09
2023-01-29T16:42:15.799Z,28.98
2023-01-29T16:43:15.842Z,28.09
2023-01-29T16:44:15.949Z,27.92
2023-01-29T16:45:16.219Z,27.97
2023-01-29T16:46:16.055Z,32.12
2023-01-29T16:47:16.064Z,33.74
2023-01-29T16:48:16.134Z,32.04
2023-01-29T16:49:16.200Z,27.93